Time;durP1;ratioP1;P1;durP2;ratioP2;P2;SDS_P1;SDS_P2;PMS_P1;PMS_P2;Temp;Humidity;BMP_temperature;BMP_pressure;BME280_temperature;BME280_humidity;BME280_pressure;Samples;Min_cycle;Max_cycle;Signal;HPM_P1;HPM_P2
2022/04/15 00:01:22;;;;;;;0.70;0.70;;;1.40;99.90;;;;;;4973990;28;20355;-84
2022/04/15 00:03:49;;;;;;;0.70;0.70;;;1.30;99.90;;;;;;4973099;28;20203;-84
2022/04/15 00:06:16;;;;;;;0.70;0.70;;;1.20;99.90;;;;;;4973445;28;20234;-84
2022/04/15 00:08:42;;;;;;;0.68;0.68;;;1.20;99.90;;;;;;4973050;28;20227;-84
2022/04/15 00:11:09;;;;;;;0.70;0.70;;;1.20;99.90;;;;;;4974340;28;20661;-84
2022/04/15 00:13:35;;;;;;;0.60;0.60;;;1.10;99.90;;;;;;4956186;28;20604;-85
2022/04/15 00:16:05;;;;;;;0.57;0.57;;;1.00;99.90;;;;;;4973902;28;20203;-84
2022/04/15 00:18:31;;;;;;;0.50;0.50;;;1.00;99.90;;;;;;4972818;28;20264;-85
2022/04/15 00:20:57;;;;;;;0.60;0.60;;;0.90;99.90;;;;;;4974400;28;20250;-84
2022/04/15 00:23:23;;;;;;;0.70;0.70;;;0.90;99.90;;;;;;4975304;28;20231;-85
2022/04/15 00:25:49;;;;;;;0.70;0.70;;;0.80;99.90;;;;;;4960587;28;20200;-85
2022/04/15 00:28:15;;;;;;;0.65;0.65;;;0.80;99.90;;;;;;4960274;28;20676;-85
2022/04/15 00:30:41;;;;;;;0.70;0.70;;;0.70;99.90;;;;;;4961228;28;20208;-85
2022/04/15 00:33:06;;;;;;;0.80;0.80;;;0.80;99.90;;;;;;4978001;28;20203;-85
2022/04/15 00:35:32;;;;;;;0.60;0.60;;;0.90;99.90;;;;;;4960314;28;20200;-85
2022/04/15 00:37:58;;;;;;;0.60;0.60;;;1.00;99.90;;;;;;4976315;28;20204;-85
2022/04/15 00:40:24;;;;;;;0.70;0.70;;;1.10;99.90;;;;;;4960175;28;20204;-84
2022/04/15 00:42:49;;;;;;;0.60;0.60;;;1.20;99.90;;;;;;4960365;28;20199;-85
2022/04/15 00:45:15;;;;;;;0.60;0.60;;;1.30;99.90;;;;;;4960366;28;20339;-86
2022/04/15 00:47:57;;;;;;;0.70;0.70;;;1.30;99.90;;;;;;4959193;28;20295;-85
2022/04/15 00:50:32;;;;;;;0.70;0.70;;;1.40;99.90;;;;;;4976999;28;20323;-85
2022/04/15 00:53:00;;;;;;;0.63;0.63;;;1.30;99.90;;;;;;4968023;28;20654;-86
2022/04/15 00:55:27;;;;;;;0.60;0.60;;;1.20;99.90;;;;;;4994927;28;20269;-86
2022/04/15 00:58:04;;;;;;;0.75;0.75;;;1.10;99.90;;;;;;4997201;28;20195;-85
2022/04/15 01:00:32;;;;;;;0.70;0.70;;;1.00;99.90;;;;;;4987583;28;20215;-86
2022/04/15 01:02:59;;;;;;;0.60;0.60;;;0.90;99.90;;;;;;4960050;28;20207;-84
2022/04/15 01:05:26;;;;;;;0.80;0.80;;;0.70;99.90;;;;;;4975978;28;20686;-86
2022/04/15 01:07:57;;;;;;;0.70;0.70;;;0.60;99.90;;;;;;4976158;28;20631;-86
2022/04/15 01:10:25;;;;;;;0.70;0.70;;;0.50;99.90;;;;;;4977003;28;20278;-85
2022/04/15 01:12:56;;;;;;;0.60;0.60;;;0.50;99.90;;;;;;4977477;28;20311;-85
2022/04/15 01:15:25;;;;;;;0.70;0.70;;;0.40;99.90;;;;;;4959681;28;20203;-85
2022/04/15 01:17:51;;;;;;;0.70;0.70;;;0.40;99.90;;;;;;4977315;28;20196;-84
2022/04/15 01:20:18;;;;;;;0.73;0.73;;;0.40;99.90;;;;;;4960245;28;20592;-85
2022/04/15 01:22:57;;;;;;;0.60;0.60;;;0.30;99.90;;;;;;4975352;28;20209;-85
2022/04/15 01:25:23;;;;;;;0.60;0.60;;;0.20;99.90;;;;;;4976763;28;20278;-84
2022/04/15 01:27:49;;;;;;;0.70;0.70;;;0.30;99.90;;;;;;4959857;28;20227;-84
2022/04/15 01:30:20;;;;;;;0.63;0.63;;;0.40;99.90;;;;;;4959368;28;20200;-85
2022/04/15 01:32:47;;;;;;;0.70;0.70;;;0.30;99.90;;;;;;4959184;28;20197;-85
2022/04/15 01:35:14;;;;;;;0.60;0.60;;;0.20;99.90;;;;;;4959332;28;20596;-84
2022/04/15 01:37:40;;;;;;;0.80;0.80;;;0.20;99.90;;;;;;4958799;28;20203;-84
2022/04/15 01:40:09;;;;;;;0.60;0.60;;;0.20;99.90;;;;;;4976167;28;20196;-85
2022/04/15 01:42:36;;;;;;;0.70;0.70;;;0.10;99.90;;;;;;4974957;28;20212;-84
2022/04/15 01:45:03;;;;;;;0.73;0.73;;;0.00;99.90;;;;;;4959027;28;20193;-84
2022/04/15 01:47:29;;;;;;;0.60;0.60;;;0.00;99.90;;;;;;4976695;28;20220;-84
2022/04/15 01:49:54;;;;;;;0.63;0.63;;;0.00;99.90;;;;;;4963850;28;20200;-84
2022/04/15 01:52:20;;;;;;;0.70;0.70;;;-0.10;99.90;;;;;;4975251;28;20200;-84
2022/04/15 01:54:46;;;;;;;0.60;0.60;;;-0.20;99.90;;;;;;4959210;28;20207;-84
2022/04/15 01:57:12;;;;;;;0.60;0.60;;;-0.20;99.90;;;;;;4976198;28;20212;-84
2022/04/15 01:59:39;;;;;;;0.60;0.60;;;-0.30;99.90;;;;;;4976661;28;20201;-84
2022/04/15 02:02:06;;;;;;;0.60;0.60;;;-0.30;99.90;;;;;;4960419;28;20212;-84
2022/04/15 02:04:32;;;;;;;0.60;0.60;;;-0.30;99.90;;;;;;4958867;28;20203;-84
2022/04/15 02:06:58;;;;;;;0.70;0.70;;;-0.40;99.90;;;;;;4976444;28;20188;-84
2022/04/15 02:09:24;;;;;;;0.75;0.75;;;-0.40;99.90;;;;;;4976480;28;20606;-84
2022/04/15 02:11:50;;;;;;;0.80;0.80;;;-0.50;99.90;;;;;;4974057;28;20270;-84
2022/04/15 02:14:17;;;;;;;0.73;0.73;;;-0.60;99.90;;;;;;4976049;28;20263;-83
2022/04/15 02:16:43;;;;;;;0.60;0.60;;;-0.60;99.90;;;;;;4976830;28;20208;-85
2022/04/15 02:19:09;;;;;;;0.70;0.70;;;-0.50;99.90;;;;;;4976805;28;20218;-85
2022/04/15 02:21:34;;;;;;;0.70;0.70;;;-0.50;99.90;;;;;;4974888;28;20710;-85
2022/04/15 02:24:00;;;;;;;1.42;1.33;;;-0.50;99.90;;;;;;4942221;29;20239;-82
2022/04/15 02:26:26;;;;;;;0.60;0.60;;;-0.50;99.90;;;;;;4956093;29;20585;-84
2022/04/15 02:28:52;;;;;;;0.70;0.70;;;-0.50;99.90;;;;;;4956066;29;20648;-84
2022/04/15 02:31:18;;;;;;;0.70;0.70;;;-0.50;99.90;;;;;;4939848;29;20201;-83
2022/04/15 02:33:44;;;;;;;0.70;0.70;;;-0.50;99.90;;;;;;4956021;29;20567;-83
2022/04/15 02:36:09;;;;;;;1.00;0.95;;;-0.60;99.90;;;;;;4956022;29;20610;-83
2022/04/15 02:38:35;;;;;;;0.70;0.70;;;-0.70;99.90;;;;;;4955263;29;20204;-84
2022/04/15 02:41:03;;;;;;;0.70;0.70;;;-0.70;99.90;;;;;;4956296;28;20216;-83
2022/04/15 02:43:33;;;;;;;0.75;0.75;;;-0.70;99.90;;;;;;4952428;29;20602;-83
2022/04/15 02:46:03;;;;;;;0.60;0.60;;;-0.70;99.90;;;;;;4953865;28;20204;-83
2022/04/15 02:48:32;;;;;;;0.85;0.85;;;-0.50;99.90;;;;;;4955610;29;20660;-83
2022/04/15 02:50:59;;;;;;;0.68;0.68;;;-0.40;99.90;;;;;;4939810;29;20201;-82
2022/04/15 02:53:25;;;;;;;0.65;0.65;;;-0.40;99.90;;;;;;4940072;29;20200;-82
2022/04/15 02:55:52;;;;;;;0.70;0.70;;;-0.40;99.90;;;;;;4939397;29;20200;-82
2022/04/15 02:58:18;;;;;;;0.75;0.75;;;-0.40;99.90;;;;;;4939387;29;20616;-82
2022/04/15 03:00:44;;;;;;;0.60;0.60;;;-0.40;99.90;;;;;;4955767;29;20225;-83
2022/04/15 03:03:11;;;;;;;0.60;0.60;;;-0.50;99.90;;;;;;4955049;29;20205;-84
2022/04/15 03:05:38;;;;;;;0.80;0.80;;;-0.50;99.90;;;;;;4954455;29;20200;-85
2022/04/15 03:08:04;;;;;;;0.70;0.70;;;-0.50;99.90;;;;;;4954649;29;20197;-84
2022/04/15 03:10:30;;;;;;;0.80;0.80;;;-0.60;99.90;;;;;;4954711;28;20197;-83
2022/04/15 03:12:56;;;;;;;0.60;0.60;;;-0.80;99.90;;;;;;4971795;28;20323;-84
2022/04/15 03:15:21;;;;;;;0.70;0.70;;;-0.90;99.90;;;;;;4974956;28;20196;-83
2022/04/15 03:17:47;;;;;;;0.70;0.70;;;-1.00;99.90;;;;;;4974151;28;20298;-83
2022/04/15 03:20:13;;;;;;;0.70;0.70;;;-1.00;99.90;;;;;;4957680;28;20283;-84
2022/04/15 03:22:41;;;;;;;0.70;0.70;;;-1.10;99.90;;;;;;4949650;29;20692;-83
2022/04/15 03:25:12;;;;;;;0.70;0.70;;;-1.10;99.90;;;;;;4955606;29;20200;-83
2022/04/15 03:27:38;;;;;;;0.70;0.70;;;-1.20;99.90;;;;;;4954321;29;20201;-84
2022/04/15 03:30:05;;;;;;;0.65;0.65;;;-1.20;99.90;;;;;;4938143;29;20628;-84
2022/04/15 03:32:31;;;;;;;0.70;0.70;;;-1.30;99.90;;;;;;4955330;29;20197;-86
2022/04/15 03:34:58;;;;;;;0.70;0.70;;;-1.40;99.90;;;;;;4955816;29;20195;-84
2022/04/15 03:37:25;;;;;;;0.60;0.60;;;-1.50;99.90;;;;;;4938215;29;20571;-84
2022/04/15 03:39:52;;;;;;;0.70;0.70;;;-1.60;99.90;;;;;;4938283;29;20268;-84
2022/04/15 03:42:18;;;;;;;0.70;0.70;;;-1.60;99.90;;;;;;4925381;29;20771;-85
2022/04/15 03:44:43;;;;;;;0.90;0.90;;;-1.70;99.90;;;;;;4937991;29;20256;-84
2022/04/15 03:47:09;;;;;;;0.80;0.80;;;-1.70;99.90;;;;;;4938075;29;20197;-85
2022/04/15 03:49:35;;;;;;;0.70;0.70;;;-1.60;99.90;;;;;;4955467;29;20199;-85
2022/04/15 03:52:01;;;;;;;0.80;0.80;;;-1.50;99.90;;;;;;4955318;29;20243;-84
2022/04/15 03:54:27;;;;;;;0.70;0.70;;;-1.50;99.90;;;;;;4955051;29;20283;-84
2022/04/15 03:56:52;;;;;;;0.70;0.70;;;-1.40;99.90;;;;;;4971761;28;20614;-84
2022/04/15 03:59:18;;;;;;;0.70;0.70;;;-1.40;99.90;;;;;;4958984;29;20208;-84
2022/04/15 04:01:44;;;;;;;0.60;0.60;;;-1.40;99.90;;;;;;4958893;29;20211;-84
2022/04/15 04:04:11;;;;;;;0.80;0.80;;;-1.40;99.90;;;;;;4959353;29;20256;-83
2022/04/15 04:06:37;;;;;;;0.70;0.70;;;-1.40;99.90;;;;;;4957744;29;20225;-84
2022/04/15 04:09:03;;;;;;;0.80;0.80;;;-1.40;99.90;;;;;;4958003;29;20201;-84
2022/04/15 04:11:29;;;;;;;0.80;0.80;;;-1.10;99.90;;;;;;4959147;28;20263;-84
2022/04/15 04:13:54;;;;;;;0.80;0.80;;;-0.90;99.90;;;;;;4997692;28;20231;-83
2022/04/15 04:16:20;;;;;;;0.75;0.75;;;-0.80;99.90;;;;;;4996227;28;20679;-83
2022/04/15 04:18:46;;;;;;;0.80;0.80;;;-0.80;99.90;;;;;;4994592;28;20230;-83
2022/04/15 04:21:12;;;;;;;0.80;0.80;;;-0.70;99.90;;;;;;4977223;28;20675;-84
2022/04/15 04:23:38;;;;;;;0.80;0.80;;;-0.50;99.90;;;;;;4976460;28;20655;-83
2022/04/15 04:26:05;;;;;;;0.73;0.73;;;-0.40;99.90;;;;;;4978075;28;20212;-84
2022/04/15 04:28:32;;;;;;;0.70;0.70;;;-0.20;99.90;;;;;;4960328;28;20615;-83
2022/04/15 04:30:58;;;;;;;0.60;0.60;;;-0.10;99.90;;;;;;4975822;28;20274;-84
2022/04/15 04:33:24;;;;;;;0.75;0.75;;;0.10;99.90;;;;;;4960089;28;20211;-84
2022/04/15 04:35:50;;;;;;;0.70;0.70;;;0.20;99.90;;;;;;4960423;28;20663;-83
2022/04/15 04:38:16;;;;;;;0.70;0.70;;;0.40;99.90;;;;;;4976931;28;20562;-83
2022/04/15 04:40:42;;;;;;;0.70;0.70;;;0.50;99.90;;;;;;4959524;28;20223;-84
2022/04/15 04:43:09;;;;;;;0.70;0.70;;;0.60;99.90;;;;;;4941206;29;20203;-84
2022/04/15 04:45:36;;;;;;;0.65;0.65;;;0.60;99.90;;;;;;4974012;28;20643;-84
2022/04/15 04:48:03;;;;;;;0.60;0.60;;;0.70;99.90;;;;;;4977540;28;20192;-83
2022/04/15 04:50:30;;;;;;;0.80;0.80;;;0.80;99.90;;;;;;4960154;28;20553;-83
2022/04/15 04:52:56;;;;;;;0.65;0.65;;;0.80;99.90;;;;;;4962491;28;20208;-83
2022/04/15 04:55:22;;;;;;;1.20;1.15;;;0.80;99.90;;;;;;4996814;28;20242;-83
2022/04/15 04:57:48;;;;;;;0.60;0.60;;;0.90;99.90;;;;;;4995688;28;20203;-85
2022/04/15 05:00:16;;;;;;;0.60;0.60;;;0.90;99.90;;;;;;4997003;28;20199;-84
2022/04/15 05:02:42;;;;;;;0.60;0.60;;;1.00;99.90;;;;;;4995416;28;20675;-83
2022/04/15 05:05:09;;;;;;;0.63;0.63;;;1.00;99.90;;;;;;4994952;28;20253;-83
2022/04/15 05:07:38;;;;;;;0.70;0.70;;;1.10;99.90;;;;;;4994166;28;20196;-82
2022/04/15 05:10:05;;;;;;;0.60;0.60;;;1.20;99.90;;;;;;4995815;28;20690;-83
2022/04/15 05:12:31;;;;;;;0.60;0.60;;;1.30;99.90;;;;;;4992127;28;20734;-83
2022/04/15 05:14:57;;;;;;;0.60;0.60;;;1.40;99.90;;;;;;4976108;28;20238;-83
2022/04/15 05:17:22;;;;;;;0.60;0.60;;;1.50;99.90;;;;;;4956321;29;20205;-82
2022/04/15 05:19:48;;;;;;;0.70;0.70;;;1.50;99.90;;;;;;4972685;28;20212;-83
2022/04/15 05:22:14;;;;;;;0.60;0.60;;;1.50;99.90;;;;;;4955820;29;20212;-83
2022/04/15 05:24:40;;;;;;;0.60;0.60;;;1.60;99.90;;;;;;4972093;28;20312;-83
2022/04/15 05:27:06;;;;;;;0.70;0.70;;;1.70;99.90;;;;;;4972639;28;20201;-83
2022/04/15 05:29:34;;;;;;;0.70;0.70;;;1.80;99.90;;;;;;4973280;28;20275;-82
2022/04/15 05:32:00;;;;;;;0.70;0.70;;;1.80;99.90;;;;;;4972586;28;20209;-83
2022/04/15 05:34:26;;;;;;;0.70;0.70;;;1.90;99.90;;;;;;4972219;28;20215;-83
2022/04/15 05:36:52;;;;;;;0.70;0.70;;;2.00;99.90;;;;;;4972558;28;20197;-83
2022/04/15 05:39:17;;;;;;;0.80;0.80;;;2.00;99.90;;;;;;4957033;29;20276;-83
2022/04/15 05:41:43;;;;;;;0.68;0.68;;;2.00;99.90;;;;;;4966069;28;20679;-83
2022/04/15 05:44:12;;;;;;;0.60;0.60;;;2.10;99.90;;;;;;4972408;28;20208;-83
2022/04/15 05:46:38;;;;;;;0.70;0.70;;;2.10;99.90;;;;;;4957145;28;21305;-82
2022/04/15 05:49:13;;;;;;;0.70;0.70;;;2.20;99.90;;;;;;4972286;28;20239;-83
2022/04/15 05:51:51;;;;;;;0.70;0.70;;;2.30;99.90;;;;;;4959263;28;20207;-83
2022/04/15 05:54:16;;;;;;;0.90;0.90;;;2.40;99.90;;;;;;4976330;28;20631;-83
2022/04/15 05:56:42;;;;;;;0.80;0.80;;;2.50;99.90;;;;;;4976387;28;20239;-83
2022/04/15 05:59:08;;;;;;;0.50;0.50;;;2.60;99.90;;;;;;4976361;28;20193;-81
2022/04/15 06:01:34;;;;;;;0.60;0.60;;;2.70;99.90;;;;;;4974817;28;20683;-82
2022/04/15 06:04:00;;;;;;;0.70;0.70;;;2.80;99.90;;;;;;4959005;28;20207;-82
2022/04/15 06:06:26;;;;;;;0.70;0.70;;;2.90;99.90;;;;;;4976288;28;20196;-83
2022/04/15 06:08:55;;;;;;;0.70;0.70;;;3.00;99.90;;;;;;4976555;28;20196;-82
2022/04/15 06:11:21;;;;;;;0.60;0.60;;;3.10;99.90;;;;;;4955973;28;20200;-82
2022/04/15 06:13:47;;;;;;;0.70;0.70;;;3.20;99.90;;;;;;4990174;28;20232;-82
2022/04/15 06:16:25;;;;;;;0.60;0.60;;;3.30;99.90;;;;;;4980768;28;20568;-83
2022/04/15 06:18:51;;;;;;;0.73;0.73;;;3.40;99.90;;;;;;4976189;28;20199;-82
2022/04/15 06:21:17;;;;;;;0.52;0.52;;;3.40;99.90;;;;;;4957196;28;20204;-82
2022/04/15 06:23:43;;;;;;;0.65;0.65;;;3.50;99.90;;;;;;4975500;28;20203;-83
2022/04/15 06:26:08;;;;;;;0.70;0.70;;;3.60;99.90;;;;;;4975000;28;20202;-82
2022/04/15 06:28:34;;;;;;;0.60;0.60;;;3.70;99.90;;;;;;4974190;28;20207;-82
2022/04/15 06:31:00;;;;;;;0.70;0.70;;;3.70;99.90;;;;;;4968157;28;20235;-82
2022/04/15 06:33:26;;;;;;;7.97;1.27;;;3.90;99.90;;;;;;4993558;28;20566;-81
2022/04/15 06:35:51;;;;;;;2.38;1.80;;;4.00;99.90;;;;;;4994026;28;20195;-80
2022/04/15 06:38:18;;;;;;;4.22;2.25;;;4.10;99.90;;;;;;4993906;28;20203;-81
2022/04/15 06:40:44;;;;;;;0.60;0.60;;;4.20;99.90;;;;;;4976053;28;20566;-82
2022/04/15 06:43:10;;;;;;;0.68;0.68;;;4.30;99.90;;;;;;4980546;28;20197;-81
2022/04/15 06:45:36;;;;;;;0.60;0.60;;;4.40;99.90;;;;;;4965685;28;20236;-81
2022/04/15 06:48:02;;;;;;;1.25;0.93;;;4.60;99.90;;;;;;4990427;28;20196;-80
2022/04/15 06:50:28;;;;;;;0.68;0.68;;;4.70;99.90;;;;;;4990115;28;20196;-80
2022/04/15 06:52:54;;;;;;;0.90;0.90;;;4.80;99.90;;;;;;4975427;28;20199;-80
2022/04/15 06:55:19;;;;;;;0.50;0.50;;;4.90;99.90;;;;;;4973018;28;20196;-81
2022/04/15 06:57:45;;;;;;;0.50;0.50;;;4.90;99.90;;;;;;4990051;28;20207;-82
2022/04/15 07:00:13;;;;;;;0.50;0.50;;;5.00;99.90;;;;;;4973869;28;20216;-82
2022/04/15 07:02:39;;;;;;;0.55;0.55;;;5.10;99.90;;;;;;4973509;28;20706;-82
2022/04/15 07:05:09;;;;;;;0.70;0.70;;;5.20;99.90;;;;;;4990039;28;20193;-82
2022/04/15 07:07:38;;;;;;;0.50;0.50;;;5.40;99.90;;;;;;4989698;28;20216;-82
2022/04/15 07:10:06;;;;;;;0.60;0.60;;;5.60;99.90;;;;;;4989957;28;20223;-82
2022/04/15 07:12:32;;;;;;;0.70;0.70;;;5.60;99.90;;;;;;4989315;28;20228;-82
2022/04/15 07:14:57;;;;;;;0.70;0.70;;;5.80;99.90;;;;;;4989895;28;20208;-82
2022/04/15 07:17:24;;;;;;;0.60;0.60;;;5.90;99.90;;;;;;4989612;28;20212;-82
2022/04/15 07:19:50;;;;;;;0.60;0.60;;;5.90;99.90;;;;;;4973788;28;20208;-84
2022/04/15 07:22:19;;;;;;;0.70;0.70;;;6.10;99.90;;;;;;4974587;28;20258;-84
2022/04/15 07:24:46;;;;;;;0.60;0.60;;;6.20;99.90;;;;;;4975021;28;20687;-83
2022/04/15 07:27:12;;;;;;;0.80;0.80;;;6.30;99.90;;;;;;4989797;28;20203;-83
2022/04/15 07:29:38;;;;;;;0.70;0.70;;;6.60;99.90;;;;;;4974506;28;20204;-84
2022/04/15 07:32:04;;;;;;;0.60;0.60;;;6.70;99.90;;;;;;4974134;28;20326;-83
2022/04/15 07:34:30;;;;;;;0.57;0.57;;;6.90;99.90;;;;;;4989513;28;20213;-83
2022/04/15 07:36:57;;;;;;;0.70;0.70;;;7.00;99.90;;;;;;4973718;28;20212;-83
2022/04/15 07:39:24;;;;;;;0.70;0.70;;;7.00;99.90;;;;;;4989770;28;20204;-84
2022/04/15 07:41:51;;;;;;;0.70;0.70;;;7.10;99.90;;;;;;4973055;28;20208;-83
2022/04/15 07:44:17;;;;;;;0.68;0.68;;;7.20;99.90;;;;;;4989483;28;20337;-83
2022/04/15 07:46:44;;;;;;;0.70;0.70;;;7.40;99.90;;;;;;4973047;28;20713;-82
2022/04/15 07:49:10;;;;;;;0.60;0.60;;;7.40;99.90;;;;;;4973634;28;20207;-85
2022/04/15 07:51:37;;;;;;;1.67;0.85;;;7.50;99.90;;;;;;4989528;28;20199;-86
2022/04/15 07:54:07;;;;;;;0.70;0.70;;;7.80;99.90;;;;;;4989765;28;20291;-86
2022/04/15 07:56:33;;;;;;;0.60;0.60;;;7.90;99.90;;;;;;4974388;28;20204;-84
2022/04/15 07:59:00;;;;;;;0.60;0.60;;;7.90;99.90;;;;;;4973602;28;20661;-84
2022/04/15 08:01:27;;;;;;;0.63;0.63;;;8.20;99.90;;;;;;4989142;28;20208;-84
2022/04/15 08:03:54;;;;;;;0.70;0.70;;;8.30;99.90;;;;;;4973001;28;20196;-84
2022/04/15 08:06:20;;;;;;;0.60;0.60;;;8.40;99.90;;;;;;4972444;28;20192;-84
2022/04/15 08:08:46;;;;;;;0.55;0.55;;;8.50;99.90;;;;;;4972821;28;20255;-84
2022/04/15 08:11:11;;;;;;;1.27;0.68;;;8.70;99.90;;;;;;4974427;28;20208;-83
2022/04/15 08:13:37;;;;;;;0.63;0.63;;;8.90;99.90;;;;;;4986366;28;20244;-84
2022/04/15 08:16:03;;;;;;;0.60;0.60;;;8.90;99.90;;;;;;4954232;28;20197;-85
2022/04/15 08:18:29;;;;;;;0.60;0.60;;;9.00;99.90;;;;;;4953905;28;20336;-85
2022/04/15 08:20:56;;;;;;;0.70;0.70;;;9.00;99.90;;;;;;4970005;28;20205;-86
2022/04/15 08:23:22;;;;;;;0.70;0.70;;;9.20;99.90;;;;;;4950332;28;20610;-85
2022/04/15 08:25:48;;;;;;;0.70;0.70;;;9.50;99.90;;;;;;4935726;29;20193;-85
2022/04/15 08:28:13;;;;;;;0.70;0.70;;;9.40;99.90;;;;;;4934389;29;20574;-84
2022/04/15 08:30:39;;;;;;;0.70;0.70;;;9.50;99.90;;;;;;4934522;28;20198;-85
2022/04/15 08:33:06;;;;;;;0.60;0.60;;;9.50;99.90;;;;;;4934607;29;20201;-85
2022/04/15 08:35:36;;;;;;;0.63;0.63;;;9.50;99.90;;;;;;4934445;29;20193;-85
2022/04/15 08:38:02;;;;;;;0.60;0.60;;;9.60;99.90;;;;;;4943233;28;20205;-85
2022/04/15 08:40:33;;;;;;;0.70;0.70;;;9.70;99.90;;;;;;4952670;28;20284;-85
2022/04/15 08:43:02;;;;;;;0.60;0.60;;;10.00;99.90;;;;;;4953706;28;20594;-85
2022/04/15 08:45:29;;;;;;;0.60;0.60;;;10.30;99.90;;;;;;4957138;28;20256;-84
2022/04/15 08:47:57;;;;;;;0.63;0.63;;;10.40;99.90;;;;;;4957234;28;20205;-85
2022/04/15 08:50:24;;;;;;;0.70;0.70;;;10.40;99.90;;;;;;4956755;28;20353;-85
2022/04/15 08:52:53;;;;;;;0.60;0.60;;;10.50;99.90;;;;;;4956879;28;20197;-85
2022/04/15 08:55:21;;;;;;;0.50;0.50;;;10.60;99.90;;;;;;4958173;28;20200;-85
2022/04/15 08:57:48;;;;;;;0.60;0.60;;;10.60;99.90;;;;;;4958386;28;20208;-86
2022/04/15 09:00:14;;;;;;;0.60;0.60;;;10.70;99.90;;;;;;4961259;28;20197;-85
2022/04/15 09:02:40;;;;;;;0.60;0.60;;;10.80;99.90;;;;;;4959542;28;20301;-85
2022/04/15 09:05:06;;;;;;;0.60;0.60;;;11.00;99.90;;;;;;4961749;28;20200;-85
2022/04/15 09:07:33;;;;;;;0.60;0.60;;;11.20;99.90;;;;;;4957727;29;20193;-85
2022/04/15 09:10:01;;;;;;;0.60;0.60;;;11.20;99.90;;;;;;4972752;28;20200;-85
2022/04/15 09:12:29;;;;;;;0.70;0.70;;;11.30;99.90;;;;;;4964439;28;20244;-84
2022/04/15 09:15:07;;;;;;;0.60;0.60;;;11.20;99.90;;;;;;4977183;28;20247;-85
2022/04/15 09:17:42;;;;;;;0.50;0.50;;;11.10;99.90;;;;;;4977192;28;20206;-86
2022/04/15 09:20:12;;;;;;;0.90;0.90;;;11.30;99.00;;;;;;4959619;28;20213;-86
2022/04/15 09:22:38;;;;;;;0.60;0.60;;;11.50;96.60;;;;;;4975192;28;20211;-86
2022/04/15 09:25:05;;;;;;;0.50;0.50;;;11.50;99.40;;;;;;4976311;28;20196;-85
2022/04/15 09:27:30;;;;;;;0.50;0.50;;;11.90;98.80;;;;;;4975702;28;20567;-86
2022/04/15 09:29:56;;;;;;;0.50;0.50;;;11.90;97.60;;;;;;4975911;28;20202;-86
2022/04/15 09:32:24;;;;;;;4.95;0.98;;;12.20;98.80;;;;;;4976941;28;20207;-86
2022/04/15 09:35:01;;;;;;;0.60;0.60;;;12.40;96.20;;;;;;4989336;28;20212;-86
2022/04/15 09:37:30;;;;;;;0.50;0.50;;;12.40;96.50;;;;;;4995046;28;20670;-86
2022/04/15 09:40:09;;;;;;;0.73;0.65;;;12.30;96.20;;;;;;4995243;28;20255;-87
2022/04/15 09:42:36;;;;;;;3.03;1.40;;;12.40;95.20;;;;;;4978827;28;20207;-86
2022/04/15 09:45:30;;;;;;;0.50;0.50;;;12.50;95.60;;;;;;4995031;28;20279;-86
2022/04/15 09:47:57;;;;;;;0.60;0.60;;;12.60;93.70;;;;;;4994875;28;20195;-86
2022/04/15 09:50:26;;;;;;;0.60;0.60;;;12.50;93.00;;;;;;4995052;28;20717;-86
2022/04/15 09:52:52;;;;;;;0.50;0.50;;;12.80;96.60;;;;;;4978686;28;20685;-86
2022/04/15 09:55:20;;;;;;;0.70;0.70;;;13.30;94.00;;;;;;4994631;28;20200;-86
2022/04/15 09:57:50;;;;;;;0.50;0.50;;;13.50;92.10;;;;;;4994908;28;20207;-87
2022/04/15 10:00:18;;;;;;;0.50;0.50;;;13.50;93.70;;;;;;4994899;28;20235;-86
2022/04/15 10:02:44;;;;;;;0.60;0.60;;;13.70;93.90;;;;;;4994553;28;20211;-87
2022/04/15 10:05:12;;;;;;;0.63;0.63;;;13.80;93.30;;;;;;4995108;28;20188;-87
2022/04/15 10:07:43;;;;;;;0.50;0.50;;;14.10;85.80;;;;;;4994771;28;20658;-86
2022/04/15 10:10:12;;;;;;;0.45;0.45;;;13.90;88.80;;;;;;4977248;28;20282;-87
2022/04/15 10:12:41;;;;;;;0.60;0.60;;;13.80;83.30;;;;;;4973115;28;20579;-86
2022/04/15 10:15:18;;;;;;;0.50;0.50;;;13.60;90.10;;;;;;4973747;28;20246;-86
2022/04/15 10:18:08;;;;;;;0.40;0.40;;;13.80;90.40;;;;;;4975451;28;20196;-86
2022/04/15 10:20:51;;;;;;;0.50;0.50;;;14.00;84.00;;;;;;4989844;28;20204;-86
2022/04/15 10:23:19;;;;;;;0.40;0.40;;;13.90;82.80;;;;;;4990020;28;20255;-86
2022/04/15 10:25:46;;;;;;;0.50;0.50;;;13.90;82.80;;;;;;4975073;28;20214;-87
2022/04/15 10:28:19;;;;;;;0.40;0.40;;;14.10;88.00;;;;;;4990015;28;20196;-86
2022/04/15 10:31:04;;;;;;;0.40;0.40;;;14.30;85.60;;;;;;4989748;28;20214;-86
2022/04/15 10:33:31;;;;;;;0.43;0.43;;;14.30;82.60;;;;;;4989750;28;20199;-86
2022/04/15 10:36:14;;;;;;;0.40;0.40;;;13.80;83.40;;;;;;4973721;28;20196;-87
2022/04/15 10:39:09;;;;;;;7.97;1.15;;;13.70;80.70;;;;;;4989551;28;20207;-86
2022/04/15 10:41:45;;;;;;;0.52;0.52;;;14.10;85.00;;;;;;4989209;28;20212;-84
2022/04/15 10:44:23;;;;;;;0.50;0.50;;;14.40;83.60;;;;;;4974671;28;20192;-84
2022/04/15 10:46:52;;;;;;;0.50;0.50;;;14.60;80.30;;;;;;4974667;28;20188;-84
2022/04/15 10:49:27;;;;;;;0.40;0.40;;;14.80;78.40;;;;;;4956930;28;20582;-84
2022/04/15 10:52:17;;;;;;;0.30;0.30;;;14.80;75.70;;;;;;4957190;28;20211;-84
2022/04/15 10:54:48;;;;;;;0.45;0.45;;;15.20;78.40;;;;;;4974353;28;20628;-84
2022/04/15 10:57:15;;;;;;;0.40;0.40;;;15.70;80.50;;;;;;4960732;28;20204;-84
2022/04/15 11:02:42;;;;;;;0.40;0.40;;;15.40;77.50;;;;;;4954797;28;20232;-84
2022/04/15 11:05:14;;;;;;;0.40;0.40;;;14.90;76.20;;;;;;4955022;28;20534;-84
2022/04/15 11:07:50;;;;;;;0.40;0.40;;;14.30;78.00;;;;;;4937236;28;20292;-81
2022/04/15 11:10:37;;;;;;;0.40;0.40;;;14.00;82.50;;;;;;4937857;29;20207;-84
2022/04/15 11:13:04;;;;;;;0.50;0.50;;;13.80;78.60;;;;;;4954541;28;20236;-84
2022/04/15 11:15:54;;;;;;;0.50;0.50;;;13.60;80.00;;;;;;4937594;28;20196;-83
2022/04/15 11:18:20;;;;;;;0.50;0.50;;;13.20;82.80;;;;;;4937417;28;20567;-83
2022/04/15 11:20:45;;;;;;;0.50;0.50;;;12.80;80.30;;;;;;4937665;29;20192;-84
2022/04/15 11:23:12;;;;;;;0.40;0.40;;;13.30;78.40;;;;;;4964855;28;20199;-84
2022/04/15 11:25:42;;;;;;;0.40;0.40;;;14.40;79.60;;;;;;4972585;28;20200;-85
2022/04/15 11:28:09;;;;;;;0.43;0.43;;;15.00;72.50;;;;;;4950200;28;20197;-85
2022/04/15 11:30:35;;;;;;;0.40;0.40;;;15.20;79.70;;;;;;4960151;28;20204;-85
2022/04/15 11:33:06;;;;;;;0.40;0.40;;;15.60;78.40;;;;;;4972426;28;20551;-85
2022/04/15 11:35:37;;;;;;;0.75;0.70;;;16.00;76.10;;;;;;4972544;28;20259;-85
2022/04/15 11:38:08;;;;;;;0.32;0.32;;;16.10;73.00;;;;;;4973917;28;20195;-84
2022/04/15 11:40:36;;;;;;;0.30;0.30;;;15.80;73.30;;;;;;4973672;28;20678;-84
2022/04/15 11:43:10;;;;;;;0.40;0.40;;;15.90;73.70;;;;;;4973937;28;20222;-84
2022/04/15 11:45:39;;;;;;;0.40;0.40;;;15.90;75.60;;;;;;4972422;28;20207;-84
2022/04/15 11:48:26;;;;;;;0.38;0.38;;;16.10;76.30;;;;;;4963002;28;20675;-85
2022/04/15 11:50:55;;;;;;;0.30;0.30;;;16.40;69.70;;;;;;4981716;28;20331;-86
2022/04/15 11:53:22;;;;;;;0.47;0.47;;;16.60;76.60;;;;;;4968719;28;20639;-85
2022/04/15 11:55:53;;;;;;;0.30;0.30;;;16.60;71.50;;;;;;4945298;29;20664;-86
2022/04/15 11:58:23;;;;;;;0.52;0.50;;;17.10;70.20;;;;;;4961828;29;20204;-83
2022/04/15 12:00:57;;;;;;;0.50;0.50;;;17.30;66.10;;;;;;4955628;29;20284;-84
2022/04/15 12:03:24;;;;;;;0.30;0.30;;;17.20;68.10;;;;;;4937147;29;20251;-84
2022/04/15 12:05:52;;;;;;;0.30;0.30;;;17.10;65.90;;;;;;4937662;29;20197;-84
2022/04/15 12:08:19;;;;;;;0.20;0.20;;;17.10;68.30;;;;;;4943815;28;20351;-85
2022/04/15 12:10:47;;;;;;;0.30;0.30;;;17.00;69.00;;;;;;4972762;28;20283;-85
2022/04/15 12:13:14;;;;;;;0.30;0.30;;;17.00;68.30;;;;;;4969215;28;20316;-85
2022/04/15 12:15:40;;;;;;;0.30;0.30;;;16.80;70.50;;;;;;4970623;28;20203;-84
2022/04/15 12:18:06;;;;;;;0.30;0.30;;;17.10;71.50;;;;;;4976230;28;20259;-85
2022/04/15 12:20:35;;;;;;;0.30;0.30;;;17.20;66.00;;;;;;4977322;28;20200;-84
2022/04/15 12:23:01;;;;;;;0.77;0.77;;;17.10;68.30;;;;;;4975988;28;20291;-84
2022/04/15 12:26:05;;;;;;;0.20;0.20;;;17.30;66.60;;;;;;4977426;28;20201;-84
2022/04/15 12:29:47;;;;;;;0.30;0.30;;;16.80;66.50;;;;;;4977022;28;20207;-83
2022/04/15 12:31:00;;;;;;;0.40;0.40;;;15.90;69.30;;;;;;4976865;28;20698;-84
2022/04/15 12:33:26;;;;;;;0.30;0.30;;;15.50;69.90;;;;;;4995209;28;20210;-84
2022/04/15 12:36:00;;;;;;;1.20;0.50;;;15.60;71.40;;;;;;4996556;28;20675;-84
2022/04/15 12:38:26;;;;;;;0.40;0.40;;;15.50;70.90;;;;;;4996240;28;20213;-84
2022/04/15 12:40:58;;;;;;;0.32;0.32;;;15.70;70.30;;;;;;4979711;28;20563;-84
2022/04/15 12:43:23;;;;;;;0.30;0.30;;;15.90;70.20;;;;;;4997310;28;20558;-85
2022/04/15 12:45:54;;;;;;;0.40;0.40;;;16.10;69.70;;;;;;4988916;28;20203;-85
2022/04/15 12:48:21;;;;;;;0.40;0.40;;;16.10;68.80;;;;;;4964523;28;20193;-85
2022/04/15 12:50:52;;;;;;;0.50;0.50;;;15.80;73.50;;;;;;4960696;28;20286;-85
2022/04/15 12:53:22;;;;;;;0.40;0.40;;;16.20;70.00;;;;;;4960440;28;20196;-85
2022/04/15 12:55:49;;;;;;;0.30;0.30;;;16.20;68.60;;;;;;4977898;28;20586;-85
2022/04/15 12:58:20;;;;;;;0.32;0.32;;;16.30;68.70;;;;;;4966716;28;20682;-86